Northern, Minnesota
Current Conditions -  °F | °C
As of 3:32 PM on Monday 24 Nov 2014 (Local Time) from KBJI Reporting Station
Light Snow Light Snow  
Wind Chill: -2°   Ceiling: 1300
Heat Index: 12°   Visibility: 5mi
Dew Point:   Wind: 12mph
Humidity: 83%   Direction: 320°NW
Pressure: 29.72"   Gusts: NA
Location:  47.5271°N, 94.7611°W
Report Text: KBJI 242132Z AUTO 32010KT 5SM -SN OVC013 M11/M13 A2972 RMK AO2 T11111135
Loading
Personal Weather Stations






























Interactive Weather Map New forecast layout! Learn more

10-Day Weather Forecast

Advertisements
Track Severe Weather on mobile